Time;durP1;ratioP1;P1;durP2;ratioP2;P2;SDS_P1;SDS_P2;PMS_P1;PMS_P2;Temp;Humidity;BMP_temperature;BMP_pressure;BME280_temperature;BME280_humidity;BME280_pressure;Samples;Min_cycle;Max_cycle;Signal;HPM_P1;HPM_P2
2022/01/04 00:00:12;;;;;;;3.78;3.13;;;9.40;99.90;;;;;;5115596;28;20279;-61
2022/01/04 00:02:38;;;;;;;4.47;2.72;;;9.30;99.90;;;;;;5115523;28;20590;-62
2022/01/04 00:05:04;;;;;;;4.13;3.03;;;9.30;99.90;;;;;;5115787;28;20257;-61
2022/01/04 00:07:31;;;;;;;4.25;3.05;;;9.40;99.90;;;;;;5115548;27;20243;-61
2022/01/04 00:09:57;;;;;;;5.30;3.17;;;9.30;99.90;;;;;;5115449;28;20169;-61
2022/01/04 00:15:07;;;;;;;4.28;3.42;;;9.30;99.90;;;;;;5115345;28;20215;-61
2022/01/04 00:17:34;;;;;;;4.75;3.05;;;9.30;99.90;;;;;;5115380;28;20188;-61
2022/01/04 00:20:00;;;;;;;3.42;3.13;;;9.20;99.90;;;;;;5115162;28;20265;-61
2022/01/04 00:22:25;;;;;;;4.55;3.00;;;9.20;99.90;;;;;;5113993;28;20173;-61
2022/01/04 00:24:51;;;;;;;4.20;3.13;;;9.20;99.90;;;;;;5114891;28;20260;-62
2022/01/04 00:27:17;;;;;;;5.05;3.03;;;9.20;99.90;;;;;;5115073;28;20173;-61
2022/01/04 00:29:42;;;;;;;3.38;2.92;;;9.30;99.90;;;;;;5115035;28;20184;-61
2022/01/04 00:32:11;;;;;;;3.70;3.05;;;9.40;99.90;;;;;;5115882;28;20177;-61
2022/01/04 00:34:37;;;;;;;4.25;2.83;;;9.40;99.90;;;;;;5116055;28;20630;-61
2022/01/04 00:37:03;;;;;;;3.67;3.15;;;9.40;99.90;;;;;;5115960;28;20174;-61
2022/01/04 00:39:29;;;;;;;5.88;3.13;;;9.50;99.90;;;;;;5116625;28;20204;-61
2022/01/04 00:41:54;;;;;;;3.92;3.10;;;9.50;99.90;;;;;;5114788;28;20196;-61
2022/01/04 00:44:20;;;;;;;3.40;3.08;;;9.40;99.90;;;;;;5113633;28;20264;-61
2022/01/04 00:46:46;;;;;;;3.65;3.13;;;9.30;99.90;;;;;;5114668;28;20238;-61
2022/01/04 00:49:11;;;;;;;3.10;2.80;;;9.40;99.90;;;;;;5114663;28;20533;-61
2022/01/04 00:51:42;;;;;;;4.15;3.35;;;9.50;99.90;;;;;;5114546;28;20552;-61
2022/01/04 00:54:08;;;;;;;3.45;3.15;;;9.50;99.90;;;;;;5114576;28;20173;-61
2022/01/04 00:56:35;;;;;;;4.93;3.50;;;9.50;99.90;;;;;;5113358;28;20542;-61
2022/01/04 00:59:01;;;;;;;5.65;3.85;;;9.40;99.90;;;;;;5114372;28;20197;-61
2022/01/04 01:01:27;;;;;;;4.35;3.83;;;9.40;99.90;;;;;;5113135;28;20268;-61
2022/01/04 01:03:53;;;;;;;4.30;3.92;;;9.50;99.90;;;;;;5114364;28;20169;-61
2022/01/04 01:06:19;;;;;;;4.47;3.95;;;9.50;99.90;;;;;;5096284;28;20601;-61
2022/01/04 01:08:45;;;;;;;4.28;3.78;;;9.50;99.90;;;;;;5112779;28;20178;-61
2022/01/04 01:11:11;;;;;;;4.68;3.90;;;9.40;99.90;;;;;;5114405;28;20256;-61
2022/01/04 01:13:37;;;;;;;4.72;4.32;;;9.30;99.90;;;;;;5113028;28;20173;-61
2022/01/04 01:16:03;;;;;;;5.00;4.57;;;9.40;99.90;;;;;;5112548;28;20252;-61
2022/01/04 01:18:29;;;;;;;4.68;4.28;;;9.40;99.90;;;;;;5114161;28;20201;-61
2022/01/04 01:20:55;;;;;;;5.22;4.72;;;9.40;99.90;;;;;;5114525;28;20695;-62
2022/01/04 01:23:21;;;;;;;5.78;4.80;;;9.40;99.90;;;;;;5113844;28;20169;-61
2022/01/04 01:25:48;;;;;;;6.38;5.60;;;9.30;99.90;;;;;;5114108;28;20177;-61
2022/01/04 01:28:15;;;;;;;7.78;5.32;;;9.40;99.90;;;;;;5113762;28;20165;-61
2022/01/04 01:30:43;;;;;;;5.90;4.90;;;9.40;99.90;;;;;;5114337;28;20649;-61
2022/01/04 01:33:09;;;;;;;7.22;5.45;;;9.40;99.90;;;;;;5114042;28;20168;-61
2022/01/04 01:35:37;;;;;;;6.20;5.60;;;9.30;99.90;;;;;;5113971;28;20206;-62
2022/01/04 01:38:04;;;;;;;6.00;5.45;;;9.40;99.90;;;;;;5113588;28;20276;-61
2022/01/04 01:40:30;;;;;;;6.25;5.65;;;9.40;99.90;;;;;;5112736;28;20216;-61
2022/01/04 01:42:56;;;;;;;6.70;5.32;;;9.40;99.90;;;;;;5112729;28;20245;-61
2022/01/04 01:45:23;;;;;;;6.63;6.03;;;9.20;99.90;;;;;;5112880;28;20268;-61
2022/01/04 01:47:49;;;;;;;6.18;5.68;;;9.40;99.90;;;;;;5113425;28;20641;-62
2022/01/04 01:50:15;;;;;;;6.50;5.90;;;9.50;99.90;;;;;;5112951;28;20518;-61
2022/01/04 01:52:44;;;;;;;6.55;6.05;;;9.50;99.90;;;;;;5113544;28;20634;-61
2022/01/04 01:55:10;;;;;;;6.72;6.15;;;9.40;99.90;;;;;;5113812;28;20166;-61
2022/01/04 01:57:36;;;;;;;7.13;6.53;;;9.50;99.90;;;;;;5113783;28;20200;-61
2022/01/04 02:00:05;;;;;;;7.68;6.97;;;9.60;99.90;;;;;;5113651;28;20204;-61
2022/01/04 02:02:30;;;;;;;8.00;7.13;;;9.50;99.90;;;;;;5113375;28;20642;-61
2022/01/04 02:04:56;;;;;;;7.47;6.80;;;9.40;99.90;;;;;;5113666;28;20248;-61
2022/01/04 02:07:23;;;;;;;8.48;7.68;;;9.30;99.90;;;;;;5114433;28;20226;-61
2022/01/04 02:10:01;;;;;;;8.10;7.47;;;9.30;99.90;;;;;;5117787;28;20179;-61
2022/01/04 02:12:27;;;;;;;8.15;7.35;;;9.30;99.90;;;;;;5117807;28;20161;-61
2022/01/04 02:14:55;;;;;;;7.70;6.97;;;9.30;99.90;;;;;;5116021;28;20192;-62
2022/01/04 02:17:21;;;;;;;7.65;6.85;;;9.40;99.90;;;;;;5117051;28;20594;-61
2022/01/04 02:19:46;;;;;;;7.93;7.32;;;9.20;99.90;;;;;;5117498;28;20290;-61
2022/01/04 02:22:12;;;;;;;8.43;7.38;;;9.10;99.90;;;;;;5116424;28;20173;-61
2022/01/04 02:24:38;;;;;;;8.57;7.75;;;9.10;99.90;;;;;;5117767;28;20522;-61
2022/01/04 02:27:04;;;;;;;7.97;7.18;;;9.10;99.90;;;;;;5116268;28;20705;-62
2022/01/04 02:29:30;;;;;;;8.32;7.63;;;9.20;99.90;;;;;;5117130;28;20569;-62
2022/01/04 02:31:55;;;;;;;8.43;7.72;;;9.20;99.90;;;;;;5117222;28;20226;-61
2022/01/04 02:34:21;;;;;;;9.23;8.20;;;9.10;99.90;;;;;;5117419;28;20181;-61
2022/01/04 02:36:47;;;;;;;9.55;8.73;;;9.30;99.90;;;;;;5117312;28;20179;-61
2022/01/04 02:39:12;;;;;;;9.68;8.88;;;9.20;99.90;;;;;;5117158;27;20198;-61
2022/01/04 02:41:38;;;;;;;10.75;9.60;;;9.20;99.90;;;;;;5117107;28;20645;-61
2022/01/04 02:44:04;;;;;;;10.13;9.13;;;9.10;99.90;;;;;;5117518;28;20252;-61
2022/01/04 02:46:30;;;;;;;10.48;9.57;;;9.10;99.90;;;;;;5117045;28;20182;-61
2022/01/04 02:48:56;;;;;;;10.48;9.55;;;9.20;99.90;;;;;;5116565;28;20185;-61
2022/01/04 02:51:23;;;;;;;10.73;9.73;;;9.10;99.90;;;;;;5117003;28;20208;-61
2022/01/04 02:53:49;;;;;;;10.02;9.23;;;9.20;99.90;;;;;;5116929;28;20176;-61
2022/01/04 02:56:15;;;;;;;10.82;9.82;;;9.20;99.90;;;;;;5117214;28;20170;-61
2022/01/04 02:58:40;;;;;;;10.50;9.50;;;9.10;99.90;;;;;;5116495;28;20280;-61
2022/01/04 03:01:06;;;;;;;10.18;9.18;;;9.10;99.90;;;;;;5116871;28;20170;-62
2022/01/04 03:03:32;;;;;;;10.88;9.90;;;9.20;99.90;;;;;;5116870;28;20177;-61
2022/01/04 03:05:58;;;;;;;11.40;10.40;;;9.20;99.90;;;;;;5116777;28;20166;-62
2022/01/04 03:08:24;;;;;;;11.05;9.95;;;9.30;99.90;;;;;;5116317;28;20180;-61
2022/01/04 03:10:50;;;;;;;11.15;10.15;;;9.20;99.90;;;;;;5116673;28;20181;-61
2022/01/04 03:13:16;;;;;;;10.85;9.80;;;9.20;99.90;;;;;;5116289;28;20174;-61
2022/01/04 03:15:46;;;;;;;10.70;9.73;;;9.10;99.90;;;;;;5116491;28;20177;-62
2022/01/04 03:18:12;;;;;;;11.75;10.63;;;9.10;99.90;;;;;;5115859;28;20199;-61
2022/01/04 03:20:38;;;;;;;11.57;10.48;;;9.30;99.90;;;;;;5114418;28;20528;-62
2022/01/04 03:23:08;;;;;;;11.10;10.10;;;9.40;99.90;;;;;;5116330;28;20184;-62
2022/01/04 03:25:35;;;;;;;10.57;9.57;;;9.20;99.90;;;;;;5116049;28;20164;-61
2022/01/04 03:28:01;;;;;;;12.65;11.35;;;9.20;99.90;;;;;;5116231;28;20174;-61
2022/01/04 03:30:27;;;;;;;10.93;10.02;;;9.30;99.90;;;;;;5116042;28;20189;-61
2022/01/04 03:32:54;;;;;;;10.93;9.93;;;9.20;99.90;;;;;;5115968;28;20292;-61
2022/01/04 03:35:20;;;;;;;11.55;10.50;;;9.20;99.90;;;;;;5116215;28;20169;-61
2022/01/04 03:37:47;;;;;;;11.88;10.48;;;9.10;99.90;;;;;;5116066;27;20179;-61
2022/01/04 03:40:13;;;;;;;12.23;11.18;;;9.10;99.90;;;;;;5116038;28;20204;-61
2022/01/04 03:42:39;;;;;;;11.95;10.65;;;9.20;99.90;;;;;;5114795;28;20196;-62
2022/01/04 03:45:06;;;;;;;12.35;11.20;;;9.20;99.90;;;;;;5115955;28;20173;-62
2022/01/04 03:47:32;;;;;;;11.77;10.65;;;9.20;99.90;;;;;;5116066;28;20185;-62
2022/01/04 03:49:58;;;;;;;12.02;10.77;;;9.20;99.90;;;;;;5097784;28;20264;-61
2022/01/04 03:52:24;;;;;;;12.88;11.57;;;9.20;99.90;;;;;;5115516;28;20260;-62
2022/01/04 03:54:49;;;;;;;12.45;11.25;;;9.30;99.90;;;;;;5114533;28;20275;-61
2022/01/04 03:57:15;;;;;;;11.95;10.75;;;9.30;99.90;;;;;;5115383;28;20173;-62
2022/01/04 03:59:41;;;;;;;11.40;10.40;;;9.30;99.90;;;;;;5114368;28;20296;-61
2022/01/04 04:02:07;;;;;;;11.77;10.57;;;9.20;99.90;;;;;;5115606;28;20519;-61
2022/01/04 04:04:32;;;;;;;12.68;11.27;;;9.10;99.90;;;;;;5114068;28;20630;-61
2022/01/04 04:07:01;;;;;;;12.20;11.10;;;9.20;99.90;;;;;;5114381;28;20181;-61
2022/01/04 04:09:27;;;;;;;11.80;10.32;;;9.20;99.90;;;;;;5115220;28;20226;-61
2022/01/04 04:11:53;;;;;;;11.10;10.00;;;9.20;99.90;;;;;;5115441;28;20181;-61
2022/01/04 04:14:18;;;;;;;11.27;10.18;;;9.20;99.90;;;;;;5114340;28;20523;-61
2022/01/04 04:16:44;;;;;;;11.85;9.90;;;9.10;99.90;;;;;;5113633;28;20185;-61
2022/01/04 04:19:10;;;;;;;11.60;10.50;;;9.00;99.90;;;;;;5113808;28;20208;-61
2022/01/04 04:21:36;;;;;;;10.73;9.60;;;9.10;99.90;;;;;;5115151;28;20226;-61
2022/01/04 04:24:05;;;;;;;10.02;9.10;;;9.00;99.90;;;;;;5115214;28;20170;-61
2022/01/04 04:26:31;;;;;;;11.20;10.20;;;9.00;99.90;;;;;;5115103;28;20169;-61
2022/01/04 04:28:56;;;;;;;9.73;8.63;;;9.10;99.90;;;;;;5115223;28;20539;-61
2022/01/04 04:31:22;;;;;;;9.35;8.55;;;9.20;99.90;;;;;;5114000;28;20177;-61
2022/01/04 04:33:47;;;;;;;9.40;8.52;;;9.40;99.90;;;;;;5113633;28;20184;-61
2022/01/04 04:36:13;;;;;;;8.88;7.97;;;9.20;99.90;;;;;;5115179;28;20180;-62
2022/01/04 04:38:39;;;;;;;9.10;8.23;;;9.30;99.90;;;;;;5114835;28;20639;-61
2022/01/04 04:41:05;;;;;;;10.80;8.43;;;9.20;99.90;;;;;;5114773;28;20174;-61
2022/01/04 04:43:30;;;;;;;8.75;7.95;;;9.20;99.90;;;;;;5114793;28;20626;-61
2022/01/04 04:45:56;;;;;;;8.90;7.78;;;9.20;99.90;;;;;;5114420;28;20165;-61
2022/01/04 04:48:22;;;;;;;8.45;7.45;;;9.10;99.90;;;;;;5114706;28;20503;-61
2022/01/04 04:50:47;;;;;;;8.82;7.93;;;9.10;99.90;;;;;;5114992;28;20173;-61
2022/01/04 04:53:13;;;;;;;8.02;7.32;;;9.10;99.90;;;;;;5114264;28;20634;-61
2022/01/04 04:55:38;;;;;;;7.95;7.15;;;9.20;99.90;;;;;;5114380;28;20227;-61
2022/01/04 04:58:04;;;;;;;8.50;7.70;;;9.10;99.90;;;;;;5114775;28;20169;-61
2022/01/04 05:00:30;;;;;;;8.07;7.28;;;9.20;99.90;;;;;;5114467;28;20201;-61
2022/01/04 05:02:55;;;;;;;8.90;7.90;;;9.30;99.90;;;;;;5114151;28;20185;-61
2022/01/04 05:05:21;;;;;;;8.52;7.72;;;9.20;99.90;;;;;;5114447;28;20184;-61
2022/01/04 05:07:47;;;;;;;8.63;7.75;;;9.20;99.90;;;;;;5114327;28;20576;-61
2022/01/04 05:10:12;;;;;;;8.48;7.57;;;9.20;99.90;;;;;;5113053;28;20292;-61
2022/01/04 05:12:38;;;;;;;9.07;8.18;;;9.20;99.90;;;;;;5114348;28;20678;-61
2022/01/04 05:15:04;;;;;;;8.40;7.60;;;9.10;99.90;;;;;;5114265;28;20174;-61
2022/01/04 05:17:31;;;;;;;8.35;7.60;;;9.20;99.90;;;;;;5114053;28;20196;-61
2022/01/04 05:19:57;;;;;;;8.63;7.75;;;9.10;99.90;;;;;;5114111;28;20205;-61
2022/01/04 05:22:23;;;;;;;8.65;7.75;;;9.10;99.90;;;;;;5114412;28;20204;-61
2022/01/04 05:24:48;;;;;;;9.13;7.82;;;9.20;99.90;;;;;;5114061;28;20322;-61
2022/01/04 05:27:14;;;;;;;9.63;8.10;;;9.20;99.90;;;;;;5114041;28;20322;-61
2022/01/04 05:29:40;;;;;;;8.48;7.68;;;9.20;99.90;;;;;;5113792;28;20178;-61
2022/01/04 05:32:06;;;;;;;9.10;8.30;;;9.30;99.90;;;;;;5114004;28;20192;-61
2022/01/04 05:34:32;;;;;;;8.60;7.70;;;9.20;99.90;;;;;;5113920;28;20257;-61
2022/01/04 05:36:58;;;;;;;9.38;8.00;;;9.10;99.90;;;;;;5113970;28;20201;-61
2022/01/04 05:39:23;;;;;;;9.30;8.25;;;9.00;99.90;;;;;;5113834;28;20204;-61
2022/01/04 05:41:49;;;;;;;10.63;8.48;;;9.20;99.90;;;;;;5113385;28;20257;-61
2022/01/04 05:44:15;;;;;;;8.85;7.95;;;9.00;99.90;;;;;;5112806;28;20173;-61
2022/01/04 05:46:40;;;;;;;10.90;8.40;;;9.00;99.90;;;;;;5113713;28;20182;-61
2022/01/04 05:49:06;;;;;;;12.02;8.55;;;9.10;99.90;;;;;;5114225;28;20185;-61
2022/01/04 05:51:32;;;;;;;8.85;7.88;;;9.20;99.90;;;;;;5113818;28;20234;-61
2022/01/04 05:53:57;;;;;;;10.60;8.65;;;9.10;99.90;;;;;;5113808;28;20246;-61
2022/01/04 05:56:23;;;;;;;10.02;8.50;;;9.10;99.90;;;;;;5113736;28;20173;-61
2022/01/04 05:58:49;;;;;;;10.32;9.15;;;9.00;99.90;;;;;;5112414;28;20196;-61
2022/01/04 06:01:14;;;;;;;9.65;8.15;;;9.10;99.90;;;;;;5112529;28;20181;-61
2022/01/04 06:03:40;;;;;;;12.02;9.15;;;9.10;99.90;;;;;;5113335;28;20173;-61
2022/01/04 06:06:06;;;;;;;10.45;9.10;;;9.10;99.90;;;;;;5127999;28;20234;-61
2022/01/04 06:08:35;;;;;;;12.00;9.48;;;9.20;99.90;;;;;;5132411;28;20545;-61
2022/01/04 06:11:02;;;;;;;11.13;9.32;;;9.10;99.90;;;;;;5134115;27;20578;-61
2022/01/04 06:16:12;;;;;;;12.00;9.20;;;9.20;99.90;;;;;;5132898;28;20207;-61
2022/01/04 06:18:40;;;;;;;12.98;9.93;;;9.20;99.90;;;;;;5132908;28;20169;-61
2022/01/04 06:21:06;;;;;;;14.07;9.77;;;9.10;99.90;;;;;;5132586;28;20665;-61
2022/01/04 06:23:32;;;;;;;11.85;9.68;;;9.10;99.90;;;;;;5134955;27;20195;-61
2022/01/04 06:25:58;;;;;;;11.55;9.30;;;9.00;99.90;;;;;;5136329;28;20181;-61
2022/01/04 06:28:23;;;;;;;12.02;9.68;;;9.00;99.90;;;;;;5134388;28;20263;-61
2022/01/04 06:30:50;;;;;;;11.20;9.40;;;9.00;99.90;;;;;;5133940;28;20213;-61
2022/01/04 06:33:26;;;;;;;11.60;9.20;;;8.90;99.90;;;;;;5115579;27;20184;-61
2022/01/04 06:35:51;;;;;;;12.57;9.68;;;9.00;99.90;;;;;;5125516;28;20305;-61
2022/01/04 06:38:17;;;;;;;12.07;8.63;;;9.00;99.90;;;;;;5133675;28;20251;-61
2022/01/04 06:40:43;;;;;;;14.25;9.25;;;8.90;99.90;;;;;;5132560;28;20213;-61
2022/01/04 06:43:09;;;;;;;12.23;8.95;;;9.00;99.90;;;;;;5134251;27;20179;-61
2022/01/04 06:45:35;;;;;;;11.65;8.02;;;9.00;99.90;;;;;;5133921;28;20182;-61
2022/01/04 06:48:00;;;;;;;11.95;8.20;;;8.90;99.90;;;;;;5134079;28;20586;-61
2022/01/04 06:50:26;;;;;;;12.10;8.02;;;8.80;99.90;;;;;;5134094;28;20533;-62
2022/01/04 06:52:52;;;;;;;10.15;7.68;;;8.90;99.90;;;;;;5132257;27;20207;-61
2022/01/04 06:55:18;;;;;;;10.82;8.30;;;8.90;99.90;;;;;;5136127;27;20208;-61
2022/01/04 06:57:43;;;;;;;12.68;8.60;;;8.90;99.90;;;;;;5136251;27;20184;-61
2022/01/04 07:00:10;;;;;;;11.13;7.90;;;8.90;99.90;;;;;;5137326;27;20200;-61
2022/01/04 07:02:36;;;;;;;12.23;7.88;;;8.90;99.90;;;;;;5137269;27;20183;-62
2022/01/04 07:05:02;;;;;;;12.50;8.35;;;8.90;99.90;;;;;;5136794;27;20202;-61
2022/01/04 07:07:28;;;;;;;11.82;7.75;;;8.80;99.90;;;;;;5135997;27;20172;-61
2022/01/04 07:09:53;;;;;;;11.57;8.13;;;8.90;99.90;;;;;;5137225;27;20667;-61
2022/01/04 07:12:19;;;;;;;12.80;8.27;;;8.80;99.90;;;;;;5137171;27;20186;-61
2022/01/04 07:14:45;;;;;;;10.23;7.68;;;8.90;99.90;;;;;;5137176;27;20534;-61
2022/01/04 07:17:10;;;;;;;10.88;7.50;;;8.90;99.90;;;;;;5136957;27;20213;-61
2022/01/04 07:19:37;;;;;;;11.98;7.90;;;8.90;99.90;;;;;;5135696;27;20567;-61
2022/01/04 07:22:04;;;;;;;10.20;6.57;;;8.90;99.90;;;;;;5137155;27;20194;-61
2022/01/04 07:24:29;;;;;;;11.02;6.60;;;9.00;99.90;;;;;;5136872;27;20169;-61
2022/01/04 07:26:55;;;;;;;6.97;6.10;;;8.90;99.90;;;;;;5136886;27;20218;-61
2022/01/04 07:29:21;;;;;;;9.32;6.53;;;9.00;99.90;;;;;;5136818;27;20271;-61
2022/01/04 07:31:47;;;;;;;9.77;6.45;;;8.90;99.90;;;;;;5136784;27;20173;-61
2022/01/04 07:34:13;;;;;;;10.77;7.60;;;8.90;99.90;;;;;;5135534;27;20169;-61
2022/01/04 07:36:38;;;;;;;9.80;6.32;;;9.00;99.90;;;;;;5136025;27;20542;-61
2022/01/04 07:39:04;;;;;;;10.20;6.28;;;9.00;99.90;;;;;;5135416;27;20658;-61
2022/01/04 07:41:29;;;;;;;6.57;5.28;;;9.10;99.90;;;;;;5136670;27;20529;-61
2022/01/04 07:43:55;;;;;;;8.45;5.40;;;9.20;99.90;;;;;;5135392;27;20175;-61
2022/01/04 07:46:23;;;;;;;6.97;5.57;;;9.20;99.90;;;;;;5136372;27;20523;-61
2022/01/04 07:48:50;;;;;;;6.80;5.40;;;9.10;99.90;;;;;;5136396;27;20176;-61
2022/01/04 07:51:17;;;;;;;7.35;5.28;;;9.10;99.90;;;;;;5136380;27;20173;-61
2022/01/04 07:53:42;;;;;;;6.18;5.35;;;8.90;99.90;;;;;;5135099;27;20164;-61
2022/01/04 07:56:08;;;;;;;8.80;5.18;;;8.90;99.90;;;;;;5136027;27;20222;-61
2022/01/04 07:58:34;;;;;;;7.07;5.15;;;8.90;99.90;;;;;;5136475;27;20568;-62
2022/01/04 08:01:00;;;;;;;6.68;5.00;;;9.00;99.90;;;;;;5134695;27;20588;-61
2022/01/04 08:03:26;;;;;;;6.63;5.50;;;8.90;99.90;;;;;;5136159;27;20601;-61
2022/01/04 08:05:52;;;;;;;5.93;5.43;;;8.90;99.90;;;;;;5135370;27;20172;-62
2022/01/04 08:08:18;;;;;;;6.15;5.55;;;8.90;99.90;;;;;;5136019;27;20644;-64
2022/01/04 08:10:46;;;;;;;6.35;5.45;;;8.90;99.90;;;;;;5136034;27;20172;-64
2022/01/04 08:13:12;;;;;;;7.40;5.65;;;8.90;99.90;;;;;;5135943;27;20225;-64
2022/01/04 08:15:38;;;;;;;7.05;5.63;;;9.00;99.90;;;;;;5134744;27;20203;-63
2022/01/04 08:18:03;;;;;;;7.00;5.75;;;9.00;99.90;;;;;;5136191;27;20649;-64
2022/01/04 08:20:29;;;;;;;6.78;6.18;;;8.80;99.90;;;;;;5136294;27;20204;-63
2022/01/04 08:22:55;;;;;;;7.30;6.22;;;8.90;99.90;;;;;;5136037;27;20232;-63
2022/01/04 08:25:20;;;;;;;7.72;6.80;;;8.80;99.90;;;;;;5135491;27;20176;-63
2022/01/04 08:27:46;;;;;;;7.35;6.65;;;8.90;99.90;;;;;;5135404;27;20533;-63
2022/01/04 08:30:13;;;;;;;8.57;7.72;;;8.80;99.90;;;;;;5135603;27;20241;-65
2022/01/04 08:32:39;;;;;;;8.68;7.72;;;8.80;99.90;;;;;;5135588;27;20217;-63
2022/01/04 08:35:07;;;;;;;8.50;7.70;;;8.90;99.90;;;;;;5135574;27;20221;-62
2022/01/04 08:37:33;;;;;;;8.68;7.78;;;9.00;99.90;;;;;;5135487;27;20197;-65
2022/01/04 08:39:58;;;;;;;9.15;8.32;;;8.90;99.90;;;;;;5135303;27;20213;-63
2022/01/04 08:42:24;;;;;;;8.93;8.13;;;9.00;99.90;;;;;;5135380;27;20173;-64
2022/01/04 08:44:50;;;;;;;9.13;7.93;;;9.00;99.90;;;;;;5134220;27;20181;-65
2022/01/04 08:47:16;;;;;;;9.93;8.82;;;9.00;99.90;;;;;;5135066;27;20177;-65
2022/01/04 08:49:42;;;;;;;10.15;8.60;;;9.10;99.90;;;;;;5135258;27;20181;-64
2022/01/04 08:52:09;;;;;;;12.52;9.23;;;9.20;99.90;;;;;;5135237;27;20646;-64
2022/01/04 08:54:35;;;;;;;9.27;8.40;;;9.30;99.90;;;;;;5135103;27;20237;-65
2022/01/04 08:57:01;;;;;;;9.77;8.88;;;9.20;99.90;;;;;;5135119;27;20173;-64
2022/01/04 08:59:28;;;;;;;10.85;9.00;;;9.20;99.90;;;;;;5133891;27;20683;-64
2022/01/04 09:01:55;;;;;;;9.43;8.52;;;9.20;99.90;;;;;;5135034;27;20168;-65
2022/01/04 09:04:24;;;;;;;10.98;9.30;;;9.10;99.90;;;;;;5134396;27;20233;-64
2022/01/04 09:06:50;;;;;;;10.27;9.25;;;9.00;99.90;;;;;;5133750;27;20172;-64
2022/01/04 09:09:16;;;;;;;10.25;9.25;;;9.10;99.90;;;;;;5134870;27;20184;-64
2022/01/04 09:11:42;;;;;;;9.93;8.93;;;9.10;99.90;;;;;;5134861;27;20227;-65
2022/01/04 09:19:19;;;;;;;11.65;10.45;;;9.20;99.90;;;;;;5134695;27;20195;-64
2022/01/04 09:21:45;;;;;;;11.57;10.32;;;9.30;99.90;;;;;;5134735;27;20255;-64
2022/01/04 09:24:11;;;;;;;11.35;10.25;;;9.30;99.90;;;;;;5133408;27;20614;-64
2022/01/04 09:26:36;;;;;;;11.38;10.23;;;9.20;99.90;;;;;;5134620;27;20175;-63
2022/01/04 09:29:03;;;;;;;11.27;10.18;;;9.10;99.90;;;;;;5134322;27;20207;-63
2022/01/04 09:31:29;;;;;;;11.45;10.27;;;9.10;99.90;;;;;;5134306;27;20172;-63
2022/01/04 09:33:57;;;;;;;10.95;9.95;;;9.10;99.90;;;;;;5134564;27;20168;-63
2022/01/04 09:36:23;;;;;;;11.43;10.32;;;9.00;99.90;;;;;;5134552;27;20518;-64
2022/01/04 09:38:48;;;;;;;11.25;10.15;;;9.10;99.90;;;;;;5133177;27;20260;-63
2022/01/04 09:41:14;;;;;;;11.80;10.60;;;9.20;99.90;;;;;;5134189;28;20177;-64
2022/01/04 09:43:40;;;;;;;10.00;9.00;;;9.30;99.90;;;;;;5133324;28;20245;-63
2022/01/04 09:46:05;;;;;;;11.23;10.13;;;9.20;99.90;;;;;;5134384;28;20184;-63
2022/01/04 09:48:31;;;;;;;10.40;9.50;;;9.10;99.90;;;;;;5134146;28;20177;-64
2022/01/04 09:50:57;;;;;;;10.38;9.43;;;9.00;99.90;;;;;;5134416;28;20179;-64
2022/01/04 09:53:25;;;;;;;10.55;9.55;;;9.10;99.90;;;;;;5134348;28;20167;-64
2022/01/04 09:55:52;;;;;;;10.32;9.38;;;9.10;99.90;;;;;;5134090;28;20534;-63
2022/01/04 09:58:20;;;;;;;10.00;9.07;;;9.20;99.90;;;;;;5134345;28;20176;-64
2022/01/04 10:00:47;;;;;;;10.25;8.90;;;9.20;99.90;;;;;;5134525;28;20228;-64
2022/01/04 10:03:17;;;;;;;11.45;9.15;;;9.30;99.90;;;;;;5134301;28;20180;-63
2022/01/04 10:05:43;;;;;;;9.80;8.80;;;9.30;99.90;;;;;;5134202;28;20527;-64
2022/01/04 10:08:11;;;;;;;9.35;8.45;;;9.30;99.90;;;;;;5134301;28;20591;-64
2022/01/04 10:10:38;;;;;;;9.98;8.98;;;9.30;99.90;;;;;;5134193;27;20263;-64
2022/01/04 10:13:07;;;;;;;9.60;8.70;;;9.20;99.90;;;;;;5133911;27;20690;-64
2022/01/04 10:15:50;;;;;;;10.07;9.07;;;9.30;99.90;;;;;;5134951;28;20179;-64
2022/01/04 10:18:16;;;;;;;11.02;8.85;;;9.40;99.90;;;;;;5134857;28;20173;-64
2022/01/04 10:21:09;;;;;;;9.32;8.52;;;9.50;99.90;;;;;;5133984;27;20211;-64
2022/01/04 10:23:54;;;;;;;9.80;8.77;;;9.70;99.90;;;;;;5134158;28;20180;-64
2022/01/04 10:26:39;;;;;;;9.45;8.20;;;9.60;99.90;;;;;;5133809;27;20157;-64
2022/01/04 10:29:25;;;;;;;8.65;7.63;;;9.60;99.90;;;;;;5134456;27;20181;-64
2022/01/04 10:31:51;;;;;;;8.15;7.35;;;9.60;99.90;;;;;;5137222;27;20192;-63
2022/01/04 10:34:16;;;;;;;8.23;7.43;;;9.60;99.90;;;;;;5136722;27;20173;-64
2022/01/04 10:36:44;;;;;;;8.65;7.75;;;9.70;99.90;;;;;;5137519;27;20176;-64
2022/01/04 10:39:10;;;;;;;8.00;7.10;;;9.60;99.90;;;;;;5137419;27;20313;-64
2022/01/04 10:41:36;;;;;;;8.93;7.50;;;9.80;99.90;;;;;;5137649;27;20200;-64
2022/01/04 10:44:07;;;;;;;9.55;6.90;;;9.70;99.90;;;;;;5135481;27;20183;-63
2022/01/04 10:46:45;;;;;;;8.35;7.00;;;9.90;99.90;;;;;;5137468;27;20175;-60
2022/01/04 10:49:22;;;;;;;7.28;6.57;;;9.70;99.90;;;;;;5137833;27;20551;-64
2022/01/04 10:52:05;;;;;;;7.45;6.65;;;9.70;99.90;;;;;;5137513;27;20171;-64
2022/01/04 10:54:31;;;;;;;8.68;6.63;;;9.80;99.90;;;;;;5136666;27;20641;-64
2022/01/04 10:57:08;;;;;;;8.82;6.55;;;9.90;99.90;;;;;;5136169;27;20271;-64
2022/01/04 10:59:34;;;;;;;6.57;5.97;;;9.90;99.90;;;;;;5137126;27;20207;-63
2022/01/04 11:02:00;;;;;;;8.02;6.43;;;10.00;99.90;;;;;;5137333;27;20177;-63
2022/01/04 11:04:26;;;;;;;8.73;6.53;;;10.00;99.90;;;;;;5137059;27;20179;-63
2022/01/04 11:06:58;;;;;;;8.13;6.53;;;10.00;99.90;;;;;;5137186;27;20628;-64
2022/01/04 11:09:24;;;;;;;7.72;6.55;;;10.10;99.90;;;;;;5137271;27;20167;-64
2022/01/04 11:11:50;;;;;;;6.57;5.85;;;10.00;99.90;;;;;;5137265;27;20173;-63
2022/01/04 11:14:16;;;;;;;8.98;5.93;;;10.00;99.90;;;;;;5136915;27;20176;-63
2022/01/04 11:16:42;;;;;;;9.23;6.57;;;10.00;99.90;;;;;;5136979;27;20548;-63
2022/01/04 11:19:08;;;;;;;7.72;6.88;;;10.00;99.90;;;;;;5137388;27;20188;-64
2022/01/04 11:21:44;;;;;;;7.75;6.18;;;10.20;99.90;;;;;;5136766;27;20531;-64
2022/01/04 11:24:12;;;;;;;8.45;6.18;;;10.00;99.90;;;;;;5136885;27;20201;-63
2022/01/04 11:26:43;;;;;;;8.43;5.95;;;10.00;99.90;;;;;;5136859;27;20172;-63
2022/01/04 11:29:09;;;;;;;8.15;6.10;;;10.00;99.90;;;;;;5136943;27;20161;-64
2022/01/04 11:32:01;;;;;;;7.55;5.72;;;10.10;99.90;;;;;;5136972;27;20245;-64
2022/01/04 11:35:09;;;;;;;7.47;5.90;;;10.10;99.90;;;;;;5136842;27;20165;-64
2022/01/04 11:37:35;;;;;;;7.95;5.90;;;10.20;99.90;;;;;;5136770;27;20229;-64
2022/01/04 11:40:40;;;;;;;6.45;5.40;;;10.20;99.90;;;;;;5135575;27;20677;-63
2022/01/04 11:43:28;;;;;;;9.50;5.75;;;10.20;99.90;;;;;;5057177;28;20194;-64
2022/01/04 11:45:53;;;;;;;7.13;5.55;;;10.30;99.90;;;;;;5094137;28;20181;-64
2022/01/04 11:48:43;;;;;;;7.30;5.75;;;10.20;99.90;;;;;;5128676;27;20531;-64
2022/01/04 11:51:30;;;;;;;6.22;5.32;;;10.10;99.90;;;;;;5128442;27;20590;-63
2022/01/04 11:54:23;;;;;;;6.03;5.32;;;10.20;99.90;;;;;;5095399;28;20200;-64
2022/01/04 11:56:58;;;;;;;8.38;5.38;;;10.20;99.90;;;;;;5090559;28;20677;-63
2022/01/04 11:59:35;;;;;;;7.75;5.43;;;10.30;99.90;;;;;;5107426;27;20207;-63
2022/01/04 12:02:27;;;;;;;7.82;6.13;;;10.30;99.90;;;;;;5136105;27;20224;-63
2022/01/04 12:05:00;;;;;;;7.38;4.97;;;10.30;99.90;;;;;;5136147;27;20168;-63
2022/01/04 12:07:42;;;;;;;4.93;4.45;;;10.30;99.90;;;;;;5136202;27;20272;-63
2022/01/04 12:10:20;;;;;;;8.00;5.55;;;10.40;99.90;;;;;;5135931;27;20646;-63
2022/01/04 12:13:01;;;;;;;6.47;5.40;;;10.40;99.90;;;;;;5136424;27;20165;-65
2022/01/04 12:15:33;;;;;;;10.02;6.13;;;10.40;99.90;;;;;;5135919;27;20171;-64
2022/01/04 12:18:28;;;;;;;7.18;5.25;;;10.40;99.90;;;;;;5136014;27;20219;-63
2022/01/04 12:20:57;;;;;;;6.68;5.43;;;10.30;99.90;;;;;;5135669;27;20212;-67
2022/01/04 12:23:26;;;;;;;10.25;5.70;;;10.30;99.90;;;;;;5135772;27;20180;-69
2022/01/04 12:26:12;;;;;;;9.07;5.70;;;10.40;99.90;;;;;;5135845;27;20177;-67
2022/01/04 12:29:06;;;;;;;7.78;5.45;;;10.50;99.90;;;;;;5135719;27;20176;-56
2022/01/04 12:31:45;;;;;;;10.55;5.85;;;10.50;99.90;;;;;;5135589;27;20176;-58
2022/01/04 12:34:30;;;;;;;9.88;6.13;;;10.60;99.90;;;;;;5135322;27;20172;-57
2022/01/04 12:36:56;;;;;;;7.38;5.13;;;10.70;99.90;;;;;;5135460;27;20208;-58
2022/01/04 12:39:31;;;;;;;11.93;6.03;;;10.70;99.90;;;;;;5135398;27;20200;-57
2022/01/04 12:41:57;;;;;;;11.38;5.82;;;10.70;99.90;;;;;;5135635;27;20164;-57
2022/01/04 12:44:25;;;;;;;10.05;4.97;;;10.80;99.90;;;;;;5135094;27;20172;-58
2022/01/04 12:46:51;;;;;;;9.25;5.97;;;10.80;99.90;;;;;;5135478;27;20169;-57
2022/01/04 12:49:19;;;;;;;5.20;4.40;;;10.80;99.90;;;;;;5135312;27;20217;-57
2022/01/04 12:51:47;;;;;;;5.97;4.55;;;10.70;99.90;;;;;;5135141;27;20255;-57
2022/01/04 12:54:24;;;;;;;6.43;4.63;;;10.80;99.90;;;;;;5134878;27;20267;-57
2022/01/04 12:56:53;;;;;;;7.45;4.78;;;10.80;99.90;;;;;;5133978;27;20558;-57
2022/01/04 12:59:30;;;;;;;7.95;4.35;;;11.00;99.90;;;;;;5135136;27;20203;-57
2022/01/04 13:02:26;;;;;;;5.30;4.80;;;10.90;99.90;;;;;;5135113;27;20172;-57
2022/01/04 13:05:01;;;;;;;6.80;4.80;;;11.10;99.90;;;;;;5135349;27;20164;-57